Time;durP1;ratioP1;P1;durP2;ratioP2;P2;SDS_P1;SDS_P2;PMS_P1;PMS_P2;Temp;Humidity;BMP_temperature;BMP_pressure;BME280_temperature;BME280_humidity;BME280_pressure;Samples;Min_cycle;Max_cycle;Signal;HPM_P1;HPM_P2
2022/04/19 00:02:01;;;;;;;15.40;9.32;;;;;;;-142.75;100.00;77584.19;4902198;28;20545;-65
2022/04/19 00:04:27;;;;;;;14.75;9.23;;;;;;;-142.75;100.00;77590.09;4908932;28;20023;-65
2022/04/19 00:06:52;;;;;;;16.92;9.77;;;;;;;-142.75;100.00;77578.28;4923207;28;20329;-64
2022/04/19 00:09:18;;;;;;;17.00;10.35;;;;;;;-142.75;100.00;77580.25;4923946;28;20337;-64
2022/04/19 00:11:44;;;;;;;16.92;9.63;;;;;;;-142.75;100.00;77562.53;4925198;28;20424;-64
2022/04/19 00:14:10;;;;;;;15.50;9.32;;;;;;;-142.75;100.00;77564.50;4923591;28;20113;-63
2022/04/19 00:16:36;;;;;;;;;;;;;;;-142.75;100.00;77566.47;4924043;28;20057;-65
2022/04/19 00:19:02;;;;;;;13.82;8.57;;;;;;;-142.75;100.00;77568.44;4923298;28;20489;-65
2022/04/19 00:21:27;;;;;;;13.27;8.07;;;;;;;-142.75;100.00;77584.19;4923019;28;20105;-65
2022/04/19 00:23:54;;;;;;;16.85;9.23;;;;;;;-142.75;100.00;77586.16;4924565;28;20257;-64
2022/04/19 00:26:19;;;;;;;;;;;;;;;-142.75;100.00;77582.22;4923656;28;20030;-65
2022/04/19 00:28:45;;;;;;;18.87;8.93;;;;;;;-142.75;100.00;77588.13;4923143;28;20206;-65
2022/04/19 00:31:11;;;;;;;19.05;10.48;;;;;;;-142.75;100.00;77576.31;4905087;28;20314;-65
2022/04/19 00:33:42;;;;;;;15.55;10.23;;;;;;;-142.75;100.00;77582.22;4924713;28;20136;-65
2022/04/19 00:36:08;;;;;;;15.27;8.77;;;;;;;-142.75;100.00;77578.28;4922915;28;20022;-66
2022/04/19 00:38:33;;;;;;;17.67;11.25;;;;;;;-142.75;100.00;77578.28;4923336;28;20311;-65
2022/04/19 00:40:59;;;;;;;19.08;10.57;;;;;;;-142.75;100.00;77580.25;4924052;28;20331;-65
2022/04/19 00:43:26;;;;;;;15.98;10.43;;;;;;;-142.75;100.00;77572.38;4923090;28;20233;-65
2022/04/19 00:45:52;;;;;;;17.10;10.20;;;;;;;-142.75;100.00;77566.47;4923412;28;20068;-65
2022/04/19 00:48:19;;;;;;;15.05;9.77;;;;;;;-142.75;100.00;77568.44;4907491;28;20325;-65
2022/04/19 00:50:44;;;;;;;17.73;10.40;;;;;;;-142.75;100.00;77572.38;4923030;28;20104;-65
2022/04/19 00:53:11;;;;;;;14.98;9.45;;;;;;;-142.75;100.00;77580.25;4925266;28;20385;-65
2022/04/19 00:55:38;;;;;;;15.53;10.10;;;;;;;-142.75;100.00;77592.06;4922736;28;20125;-65
2022/04/19 00:58:06;;;;;;;16.27;9.57;;;;;;;-142.75;100.00;77605.84;4925104;28;20037;-65
2022/04/19 01:00:31;;;;;;;17.17;10.53;;;;;;;-142.75;100.00;77603.88;4924217;28;20539;-65
2022/04/19 01:02:57;;;;;;;14.70;8.60;;;;;;;-142.75;100.00;77615.69;4926868;28;20030;-64
2022/04/19 01:05:22;;;;;;;15.27;10.07;;;;;;;-142.75;100.00;77621.59;4928355;28;20429;-65
2022/04/19 01:07:48;;;;;;;17.92;10.23;;;;;;;-142.75;100.00;77629.47;4927096;28;20436;-65
2022/04/19 01:10:14;;;;;;;18.40;10.88;;;;;;;-142.75;100.00;77639.31;4926327;28;20188;-65
2022/04/19 01:15:23;;;;;;;17.17;10.87;;;;;;;-142.75;100.00;77645.22;4926167;28;20256;-64
2022/04/19 01:17:50;;;;;;;19.33;10.90;;;;;;;-142.75;100.00;77657.03;4927044;28;20580;-64
2022/04/19 01:20:15;;;;;;;17.47;10.70;;;;;;;-142.75;100.00;77662.94;4925697;28;20057;-65
2022/04/19 01:22:42;;;;;;;15.55;9.15;;;;;;;-142.75;100.00;77664.91;4928226;28;20364;-65
2022/04/19 01:25:10;;;;;;;18.23;10.53;;;;;;;-142.75;100.00;77668.84;4926036;28;20117;-65
2022/04/19 01:27:35;;;;;;;16.83;10.57;;;;;;;-142.75;100.00;77672.78;4925571;28;20084;-65
2022/04/19 01:30:06;;;;;;;21.58;9.68;;;;;;;-142.75;100.00;77672.78;4926092;28;20011;-65
2022/04/19 01:32:32;;;;;;;15.23;9.70;;;;;;;-142.75;100.00;77676.72;4938328;28;20741;-64
2022/04/19 01:35:04;;;;;;;;;;;;;;;-142.75;100.00;77674.75;4927320;28;20049;-64
2022/04/19 01:37:33;;;;;;;18.33;9.73;;;;;;;-142.75;100.00;77676.72;4927107;28;19920;-64
2022/04/19 01:40:17;;;;;;;15.17;9.40;;;;;;;-142.75;100.00;77688.53;4919771;28;20030;-65
2022/04/19 01:42:52;;;;;;;16.93;9.33;;;;;;;-142.75;100.00;77694.44;4915614;28;20634;-64
2022/04/19 01:45:22;;;;;;;14.73;9.03;;;;;;;-142.75;100.00;77704.28;4927243;28;20157;-65
2022/04/19 01:47:47;;;;;;;16.13;9.33;;;;;;;-142.75;100.00;77704.28;4925274;28;20081;-65
2022/04/19 01:50:15;;;;;;;14.90;8.93;;;;;;;-142.75;100.00;77702.31;4925964;28;20097;-65
2022/04/19 01:52:42;;;;;;;12.83;7.93;;;;;;;-142.75;100.00;77700.34;4926774;28;20088;-65
2022/04/19 01:55:10;;;;;;;13.23;8.83;;;;;;;-142.75;100.00;77708.22;4927852;28;20108;-64
2022/04/19 01:57:36;;;;;;;15.13;9.20;;;;;;;-142.75;100.00;77712.16;4925888;28;20022;-65
2022/04/19 02:00:04;;;;;;;18.08;9.15;;;;;;;-142.75;100.00;77712.16;4927442;28;20497;-64
2022/04/19 02:02:29;;;;;;;14.83;9.93;;;;;;;-142.75;100.00;77723.97;4926466;28;20030;-64
2022/04/19 02:04:55;;;;;;;16.63;10.25;;;;;;;-142.75;100.00;77723.97;4927880;28;20420;-65
2022/04/19 02:07:20;;;;;;;17.08;10.77;;;;;;;-142.75;100.00;77716.09;4927452;28;20516;-65
2022/04/19 02:09:47;;;;;;;16.42;9.70;;;;;;;-142.75;100.00;77720.03;4926500;28;20412;-64
2022/04/19 02:12:13;;;;;;;19.70;11.00;;;;;;;-142.75;100.00;77731.88;4924712;28;20121;-63
2022/04/19 02:14:41;;;;;;;18.15;10.82;;;;;;;-142.75;100.00;77723.97;4906291;28;20324;-65
2022/04/19 02:17:09;;;;;;;21.23;13.10;;;;;;;-142.75;100.00;77723.97;4908134;28;20559;-64
2022/04/19 02:19:35;;;;;;;19.67;11.67;;;;;;;-142.75;100.00;77716.09;4920026;28;20049;-64
2022/04/19 02:22:01;;;;;;;23.10;13.87;;;;;;;-142.75;100.00;77708.22;4925498;28;20056;-65
2022/04/19 02:24:27;;;;;;;20.98;12.55;;;;;;;-142.75;100.00;77698.38;4927327;28;20341;-64
2022/04/19 02:26:53;;;;;;;25.25;15.15;;;;;;;-142.75;100.00;77686.56;4924794;28;20381;-65
2022/04/19 02:29:19;;;;;;;;;;;;;;;-142.75;100.00;77688.53;4925138;28;20920;-64
2022/04/19 02:31:45;;;;;;;23.73;14.27;;;;;;;-142.75;100.00;77680.66;4926771;28;19914;-64
2022/04/19 02:34:10;;;;;;;23.10;13.30;;;;;;;-142.75;100.00;77676.72;4924402;28;20157;-65
2022/04/19 02:36:36;;;;;;;20.98;13.23;;;;;;;-142.75;100.00;77672.78;4924851;28;20082;-65
2022/04/19 02:39:01;;;;;;;22.17;12.98;;;;;;;-142.75;100.00;77668.84;4925023;28;20347;-64
2022/04/19 02:41:28;;;;;;;19.40;12.70;;;;;;;-142.75;100.00;77676.72;4925531;28;20019;-65
2022/04/19 02:43:53;;;;;;;;;;;;;;;-142.75;100.00;77662.94;4925187;28;20121;-65
2022/04/19 02:46:19;;;;;;;20.77;12.77;;;;;;;-142.75;100.00;77668.84;4925961;28;20221;-64
2022/04/19 02:48:44;;;;;;;18.88;12.70;;;;;;;-142.75;100.00;77660.97;4927044;28;20338;-64
2022/04/19 02:51:10;;;;;;;23.75;13.23;;;;;;;-142.75;100.00;77657.03;4924007;28;20295;-64
2022/04/19 02:53:36;;;;;;;19.10;12.30;;;;;;;-142.75;100.00;77660.97;4926750;28;20038;-64
2022/04/19 02:56:03;;;;;;;24.23;14.20;;;;;;;-142.75;100.00;77655.06;4907057;28;20022;-64
2022/04/19 02:58:29;;;;;;;22.40;13.60;;;;;;;-142.75;100.00;77649.16;4925651;28;20026;-65
2022/04/19 03:00:55;;;;;;;18.38;12.85;;;;;;;-142.75;100.00;77649.16;4926515;28;20350;-64
2022/04/19 03:03:21;;;;;;;19.05;10.57;;;;;;;-142.75;100.00;77653.09;4906275;28;20397;-65
2022/04/19 03:05:48;;;;;;;;;;;;;;;-142.75;100.00;77655.06;4925023;28;20027;-63
2022/04/19 03:08:14;;;;;;;18.58;11.00;;;;;;;-142.75;100.00;77655.06;4924233;28;19992;-63
2022/04/19 03:10:39;;;;;;;20.70;12.18;;;;;;;-142.75;100.00;77653.09;4926186;28;20037;-63
2022/04/19 03:13:05;;;;;;;19.27;12.35;;;;;;;-142.75;100.00;77653.09;4926460;28;20034;-63
2022/04/19 03:15:34;;;;;;;18.40;11.40;;;;;;;-142.75;100.00;77674.75;4924593;28;20361;-64
2022/04/19 03:18:00;;;;;;;20.30;12.47;;;;;;;-142.75;100.00;77676.72;4924094;28;20030;-64
2022/04/19 03:20:26;;;;;;;21.87;13.53;;;;;;;-142.75;100.00;77676.72;4925246;28;20022;-65
2022/04/19 03:28:19;;;;;;;17.43;11.77;;;;;;;-142.75;100.00;77706.25;4923197;28;20545;-64
2022/04/19 03:30:46;;;;;;;21.85;13.32;;;;;;;-142.75;100.00;77704.28;4924894;28;20562;-65
2022/04/19 03:33:11;;;;;;;18.80;12.47;;;;;;;-142.75;100.00;77710.19;4925004;28;20030;-63
2022/04/19 03:35:38;;;;;;;20.45;12.93;;;;;;;-142.75;100.00;77714.13;4922629;28;20353;-64
2022/04/19 03:38:07;;;;;;;19.37;12.63;;;;;;;-142.75;100.00;77720.03;4926022;28;20026;-65
2022/04/19 03:40:33;;;;;;;22.70;13.93;;;;;;;-142.75;100.00;77723.97;4924765;28;20096;-65
2022/04/19 03:42:58;;;;;;;19.63;12.45;;;;;;;-142.75;100.00;77722.00;4924270;28;20030;-65
2022/04/19 03:45:24;;;;;;;19.92;13.63;;;;;;;-142.75;100.00;77727.94;4924943;28;20022;-64
2022/04/19 03:47:49;;;;;;;20.85;12.95;;;;;;;-142.75;100.00;77723.97;4925554;28;20529;-63
2022/04/19 03:50:15;;;;;;;20.33;12.90;;;;;;;-142.75;100.00;77723.97;4925873;28;20372;-64
2022/04/19 03:52:42;;;;;;;21.47;12.90;;;;;;;-142.75;100.00;77731.88;4925285;28;20062;-64
2022/04/19 03:55:08;;;;;;;23.63;13.43;;;;;;;-142.75;100.00;77735.81;4925618;28;20145;-63
2022/04/19 03:57:34;;;;;;;22.45;13.82;;;;;;;-142.75;100.00;77731.88;4925081;28;20153;-63
2022/04/19 03:59:59;;;;;;;20.65;13.80;;;;;;;-142.75;100.00;77735.81;4925284;28;20361;-63
2022/04/19 04:02:26;;;;;;;23.13;14.27;;;;;;;-142.75;100.00;77747.63;4926110;28;20311;-63
2022/04/19 04:04:52;;;;;;;22.73;13.87;;;;;;;-142.75;100.00;77755.50;4924978;28;20030;-63
2022/04/19 04:07:17;;;;;;;24.67;13.43;;;;;;;-142.75;100.00;77755.50;4926185;28;20232;-64
2022/04/19 04:09:43;;;;;;;18.58;12.02;;;;;;;-142.75;100.00;77757.47;4927778;28;20314;-64
2022/04/19 04:12:11;;;;;;;20.77;13.00;;;;;;;-142.75;100.00;77751.56;4926249;28;20034;-64
2022/04/19 04:14:38;;;;;;;18.77;12.73;;;;;;;-142.75;100.00;77745.66;4905760;28;20076;-63
2022/04/19 04:17:03;;;;;;;20.57;12.37;;;;;;;-142.75;100.00;77751.56;4926067;28;20054;-63
2022/04/19 04:19:29;;;;;;;20.13;12.38;;;;;;;-142.75;100.00;77749.59;4924752;28;20351;-64
2022/04/19 04:21:55;;;;;;;19.55;11.80;;;;;;;-142.75;100.00;77755.50;4924347;28;20344;-64
2022/04/19 04:24:20;;;;;;;20.50;12.30;;;;;;;-142.75;100.00;77753.53;4924963;28;20026;-63
2022/04/19 04:26:46;;;;;;;19.30;11.85;;;;;;;-142.75;100.00;77759.44;4923848;28;20193;-63
2022/04/19 04:29:12;;;;;;;19.33;12.48;;;;;;;-142.75;100.00;77759.44;4924973;28;20057;-64
2022/04/19 04:31:38;;;;;;;;;;;;;;;-142.75;100.00;77763.38;4925754;28;20026;-63
2022/04/19 04:34:04;;;;;;;18.10;11.60;;;;;;;-142.75;100.00;77765.34;4926234;28;20213;-63
2022/04/19 04:36:30;;;;;;;19.50;12.73;;;;;;;-142.75;100.00;77775.19;4927340;28;20032;-64
2022/04/19 04:38:55;;;;;;;21.63;12.82;;;;;;;-142.75;100.00;77788.97;4928794;28;20034;-64
2022/04/19 04:41:21;;;;;;;21.23;12.85;;;;;;;-142.75;100.00;77794.88;4926894;28;20467;-64
2022/04/19 04:43:46;;;;;;;19.17;11.77;;;;;;;-142.75;100.00;77798.81;4928598;28;20329;-64
2022/04/19 04:51:40;;;;;;;20.47;12.80;;;;;;;-142.75;100.00;77775.19;4921786;28;20057;-66
2022/04/19 04:54:05;;;;;;;21.77;12.93;;;;;;;-142.75;100.00;77783.06;4927522;28;20374;-63
2022/04/19 04:56:31;;;;;;;24.92;13.32;;;;;;;-142.75;100.00;77787.00;4928064;28;20476;-64
2022/04/19 04:58:56;;;;;;;17.83;12.10;;;;;;;-142.75;100.00;77783.06;4926928;28;20384;-66
2022/04/19 05:01:22;;;;;;;20.00;12.20;;;;;;;-142.75;100.00;77783.06;4927522;28;20076;-66
2022/04/19 05:03:47;;;;;;;21.17;12.23;;;;;;;-142.75;100.00;77781.09;4929257;28;20369;-65
2022/04/19 05:06:13;;;;;;;18.48;11.88;;;;;;;-142.75;100.00;77783.06;4927722;28;20357;-65
2022/04/19 05:08:38;;;;;;;22.20;12.77;;;;;;;-142.75;100.00;77787.00;4928103;28;20306;-65
2022/04/19 05:11:04;;;;;;;18.90;11.30;;;;;;;-142.75;100.00;77773.22;4928916;28;20369;-65
2022/04/19 05:13:29;;;;;;;16.92;11.43;;;;;;;-142.75;100.00;77767.31;4928593;28;20469;-65
2022/04/19 05:15:58;;;;;;;15.38;9.55;;;;;;;-142.75;100.00;77761.41;4928173;28;20319;-65
2022/04/19 05:18:24;;;;;;;17.00;11.20;;;;;;;-142.75;100.00;77755.50;4926979;28;20104;-65
2022/04/19 05:20:49;;;;;;;19.25;12.65;;;;;;;-142.75;100.00;77739.75;4928792;28;20027;-65
2022/04/19 05:23:15;;;;;;;18.63;12.50;;;;;;;-142.75;100.00;77757.47;4926763;28;20365;-65
2022/04/19 05:25:40;;;;;;;19.80;12.20;;;;;;;-142.75;100.00;77751.56;4928428;28;20030;-64
2022/04/19 05:28:06;;;;;;;17.88;11.45;;;;;;;-142.75;100.00;77735.81;4926846;28;20030;-66
2022/04/19 05:33:03;;;;;;;16.93;11.17;;;;;;;-142.75;100.00;77716.09;4989998;22;20869;-65
2022/04/19 05:35:28;;;;;;;18.23;11.15;;;;;;;-142.75;100.00;77714.13;4945127;28;20064;-64
2022/04/19 05:37:55;;;;;;;16.45;10.98;;;;;;;-142.75;100.00;77712.16;4959531;28;20422;-64
2022/04/19 05:40:21;;;;;;;17.63;11.00;;;;;;;-142.75;100.00;77702.31;4968579;28;20151;-64
2022/04/19 05:42:47;;;;;;;;;;;;;;;-142.75;100.00;77692.47;4964609;28;20028;-63
2022/04/19 05:45:12;;;;;;;17.37;10.97;;;;;;;-142.75;100.00;77694.44;4980070;28;20270;-64
2022/04/19 05:47:38;;;;;;;15.48;9.55;;;;;;;-142.75;100.00;77672.78;4959547;28;20302;-64
2022/04/19 05:50:04;;;;;;;16.33;10.10;;;;;;;-142.75;100.00;77657.03;4970339;28;20331;-63
2022/04/19 05:52:29;;;;;;;17.63;10.75;;;;;;;-142.75;100.00;77657.03;4981218;28;20334;-63
2022/04/19 05:54:55;;;;;;;16.25;10.05;;;;;;;-142.75;100.00;77639.31;4970528;28;20347;-64
2022/04/19 05:57:20;;;;;;;14.27;9.57;;;;;;;-142.75;100.00;77633.41;4971349;28;20379;-64
2022/04/19 05:59:46;;;;;;;17.05;11.02;;;;;;;-142.75;100.00;77627.50;4953602;28;20418;-63
2022/04/19 06:04:57;;;;;;;17.57;10.63;;;;;;;-142.75;100.00;77617.66;4966878;28;20339;-63
2022/04/19 06:07:25;;;;;;;17.40;11.50;;;;;;;-142.75;100.00;77615.69;4974469;28;20025;-64
2022/04/19 06:09:50;;;;;;;21.07;10.93;;;;;;;-142.75;100.00;77605.84;4964114;28;20090;-63
2022/04/19 06:12:16;;;;;;;19.40;10.57;;;;;;;-142.75;100.00;77584.19;4962346;28;20257;-63
2022/04/19 06:14:41;;;;;;;17.58;11.40;;;;;;;-142.75;100.00;77560.56;4964073;28;20414;-63
2022/04/19 06:17:07;;;;;;;18.40;10.55;;;;;;;-142.75;100.00;77527.09;4967978;28;20422;-63
2022/04/19 06:19:33;;;;;;;14.63;10.18;;;;;;;-142.75;100.00;77501.50;4955428;28;20391;-63
2022/04/19 06:21:59;;;;;;;14.60;9.57;;;;;;;-142.75;100.00;77473.94;4967939;28;20464;-63
2022/04/19 06:24:25;;;;;;;16.60;10.60;;;;;;;-142.75;100.00;77456.22;4968228;28;20351;-64
2022/04/19 06:26:51;;;;;;;13.25;9.73;;;;;;;-142.75;100.00;77428.63;4964109;28;20118;-64
2022/04/19 06:29:16;;;;;;;15.10;9.85;;;;;;;-142.75;100.00;77401.06;4954332;28;20395;-63
2022/04/19 06:31:43;;;;;;;14.70;9.55;;;;;;;-142.75;100.00;77379.41;4963709;28;20353;-63
2022/04/19 06:34:09;;;;;;;16.90;10.13;;;;;;;-142.75;100.00;77373.50;4950313;28;20098;-63
2022/04/19 06:36:35;;;;;;;23.73;10.30;;;;;;;-142.75;100.00;77334.13;4975853;28;20128;-64
2022/04/19 06:39:01;;;;;;;15.35;10.23;;;;;;;-142.75;100.00;77314.44;4959439;28;20338;-63
2022/04/19 06:41:27;;;;;;;13.38;9.18;;;;;;;-142.75;100.00;77290.81;4982979;28;20191;-63
2022/04/19 06:43:53;;;;;;;15.30;9.65;;;;;;;-142.75;100.00;77263.25;4981114;28;20343;-63
2022/04/19 06:46:19;;;;;;;14.23;9.25;;;;;;;-142.75;100.00;77247.50;4949935;28;20855;-63
2022/04/19 06:48:44;;;;;;;15.15;9.32;;;;;;;-142.75;100.00;77239.63;4972958;28;20136;-63
2022/04/19 06:51:10;;;;;;;13.40;9.15;;;;;;;-142.75;100.00;77221.91;4974563;28;20608;-63
2022/04/19 06:53:36;;;;;;;14.63;9.25;;;;;;;-142.75;100.00;77206.16;4972048;28;20372;-65
2022/04/19 06:56:03;;;;;;;;;;;;;;;-142.75;100.00;77184.50;4966321;28;20025;-65
2022/04/19 06:58:28;;;;;;;15.88;9.50;;;;;;;-142.75;100.00;77170.72;4959346;28;19970;-65
2022/04/19 07:00:54;;;;;;;13.38;8.55;;;;;;;-142.75;100.00;77158.91;4955785;28;20552;-65
2022/04/19 07:03:19;;;;;;;13.00;8.43;;;;;;;-142.75;100.00;77149.06;4958123;28;20199;-65
2022/04/19 07:05:45;;;;;;;13.73;8.50;;;;;;;-142.75;100.00;77137.25;4969668;28;20188;-65
2022/04/19 07:08:11;;;;;;;;;;;;;;;-142.75;100.00;77129.38;4979479;28;20327;-65
2022/04/19 07:10:37;;;;;;;14.25;9.32;;;;;;;-142.75;100.00;77109.69;4983572;28;19920;-65
2022/04/19 07:13:03;;;;;;;13.23;8.82;;;;;;;-142.75;100.00;77099.84;4975339;28;20323;-65
2022/04/19 07:15:28;;;;;;;;;;;;;;;-142.75;100.00;77076.22;4972840;28;20055;-64
2022/04/19 07:17:54;;;;;;;14.82;8.43;;;;;;;-142.75;100.00;77058.50;4953395;28;20250;-64
2022/04/19 07:28:35;;;;;;;14.40;9.32;;;;;;;-142.75;100.00;76960.06;5019821;28;20044;-65
2022/04/19 07:31:03;;;;;;;19.23;8.73;;;;;;;-142.75;100.00;76904.94;5019223;28;20025;-66
2022/04/19 07:33:30;;;;;;;14.55;8.43;;;;;;;-142.75;100.00;76857.69;5020186;28;20111;-65
2022/04/19 07:35:55;;;;;;;14.88;8.23;;;;;;;-142.75;100.00;76820.28;5018508;28;20021;-66
2022/04/19 07:38:22;;;;;;;14.32;8.05;;;;;;;-142.75;100.00;76794.69;5028785;28;20804;-66
2022/04/19 07:40:47;;;;;;;13.85;8.02;;;;;;;-142.75;100.00;76759.28;5039749;28;20087;-66
2022/04/19 07:43:13;;;;;;;14.70;7.40;;;;;;;-142.75;100.00;76727.78;5039586;28;20509;-66
2022/04/19 07:45:38;;;;;;;;;;;;;;;-142.75;100.00;76725.81;5040344;28;20025;-66
2022/04/19 07:48:05;;;;;;;30.80;10.05;;;;;;;-142.75;100.00;76725.81;5038432;28;20400;-66
2022/04/19 07:50:30;;;;;;;82.70;17.77;;;;;;;-142.75;100.00;76719.91;5039638;28;20486;-66
2022/04/19 07:52:55;;;;;;;;;;;;;;;-142.75;100.00;76710.06;5039892;28;20186;-66
2022/04/19 07:55:21;;;;;;;29.13;10.40;;;;;;;-142.75;100.00;76706.13;5039437;28;20378;-66
2022/04/19 07:57:46;;;;;;;;;;;;;;;-142.75;100.00;76684.47;5039291;28;20028;-65
2022/04/19 08:00:13;;;;;;;13.45;7.25;;;;;;;-142.75;100.00;76652.97;5033823;28;19923;-65
2022/04/19 08:02:39;;;;;;;13.02;7.13;;;;;;;-142.75;94.98;76651.00;5018984;28;20376;-66
2022/04/19 08:05:04;;;;;;;;;;;;;;;-142.75;96.62;76660.84;5019056;28;20036;-66
2022/04/19 08:07:30;;;;;;;10.82;6.82;;;;;;;-142.75;88.84;76641.16;4994952;28;20051;-65
2022/04/19 08:09:58;;;;;;;;;;;;;;;-142.75;91.88;76625.41;4955145;28;20854;-66
2022/04/19 08:12:24;;;;;;;11.60;7.05;;;;;;;-142.75;86.19;76613.59;4969352;28;20068;-65
2022/04/19 08:14:49;;;;;;;;;;;;;;;-142.75;88.18;76613.59;4969724;28;20605;-65
2022/04/19 08:17:15;;;;;;;15.55;7.68;;;;;;;-142.75;83.11;76578.16;4968919;28;19920;-65
2022/04/19 08:19:40;;;;;;;;;;;;;;;-142.75;85.66;76580.13;4969220;28;20059;-65
2022/04/19 08:22:05;;;;;;;23.48;7.93;;;;;;;-142.75;79.84;76578.16;4969177;28;20178;-65
2022/04/19 08:24:30;;;;;;;;;;;;;;;-142.75;83.89;76574.22;4969687;28;20350;-63
2022/04/19 08:26:56;;;;;;;14.10;7.22;;;;;;;-142.75;79.05;76566.34;4968879;28;19913;-63
2022/04/19 08:29:21;;;;;;;;;;;;;;;-142.75;79.75;76562.41;4969014;28;20390;-63
2022/04/19 08:31:46;;;;;;;10.18;6.00;;;;;;;-142.75;75.70;76554.53;4968928;28;19917;-63
2022/04/19 08:34:12;;;;;;;;;;;;;;;-142.75;75.75;76552.56;4969396;28;20675;-63
2022/04/19 08:36:38;;;;;;;11.02;6.10;;;;;;;-142.75;76.00;76568.31;4968772;28;20226;-64
2022/04/19 08:39:03;;;;;;;;;;;;;;;-142.75;73.79;76532.88;4969113;28;20536;-63
2022/04/19 08:41:29;;;;;;;11.43;6.03;;;;;;;-142.75;74.19;76509.28;4969995;28;20019;-63
2022/04/19 08:43:54;;;;;;;;;;;;;;;-142.75;72.00;76499.44;4969736;28;20136;-63
2022/04/19 08:46:19;;;;;;;9.00;4.82;;;;;;;-142.75;72.76;76475.81;4969326;28;20180;-63
2022/04/19 08:48:44;;;;;;;;;;;;;;;-142.75;72.57;76469.91;4969255;28;20021;-63
2022/04/19 08:51:12;;;;;;;9.52;5.10;;;;;;;-142.75;73.71;76389.19;4969164;28;20359;-63
2022/04/19 08:59:07;;;;;;;11.23;6.32;;;;;;;-142.75;69.13;76357.69;4968414;28;20366;-63
2022/04/19 09:01:37;;;;;;;10.68;5.20;;;;;;;-142.75;66.85;76336.06;4969291;28;20450;-62
2022/04/19 09:04:04;;;;;;;9.18;4.82;;;;;;;-142.75;68.66;76326.22;4968774;28;20429;-62
2022/04/19 09:06:54;;;;;;;10.27;6.45;;;;;;;-142.75;66.65;76278.97;4969721;28;20551;-62
2022/04/19 09:09:30;;;;;;;13.48;6.63;;;;;;;-142.75;67.83;76265.19;4968526;28;20235;-63
2022/04/19 09:12:07;;;;;;;12.35;5.20;;;;;;;-142.75;66.38;76284.88;4951051;28;20045;-62
2022/04/19 09:14:33;;;;;;;10.10;5.22;;;;;;;-142.75;69.15;76302.59;4969566;28;20238;-62
2022/04/19 09:17:17;;;;;;;8.98;5.00;;;;;;;-142.75;71.31;76302.59;4969021;28;20114;-62
2022/04/19 09:19:43;;;;;;;10.85;4.65;;;;;;;-142.75;65.53;76261.25;4968761;28;20057;-63
2022/04/19 09:22:09;;;;;;;10.57;4.68;;;;;;;-142.75;64.57;76280.94;4971422;28;20078;-63
2022/04/19 09:24:35;;;;;;;8.15;4.38;;;;;;;-142.75;66.21;76280.94;4973038;28;20190;-63
2022/04/19 09:27:00;;;;;;;6.72;3.92;;;;;;;-142.75;62.64;76326.22;4972479;28;20596;-62
2022/04/19 09:29:26;;;;;;;;;;;;;;;-142.75;61.75;76365.56;4972567;28;20391;-63
2022/04/19 09:32:01;;;;;;;7.20;3.60;;;;;;;-142.75;66.22;76399.03;4972401;28;19917;-62
2022/04/19 09:34:33;;;;;;;8.10;4.30;;;;;;;-142.75;64.90;76365.56;4972776;28;20044;-62
2022/04/19 09:37:10;;;;;;;6.88;4.25;;;;;;;-142.75;68.57;76320.31;4954511;28;20196;-65
2022/04/19 09:39:37;;;;;;;8.38;4.30;;;;;;;-142.75;63.33;76314.41;4972172;28;20026;-65
2022/04/19 09:42:14;;;;;;;8.80;4.45;;;;;;;-142.75;63.95;76330.16;4958331;28;20357;-62
2022/04/19 09:44:51;;;;;;;9.05;4.78;;;;;;;-142.75;62.92;76277.00;4972530;28;20114;-63
2022/04/19 09:47:17;;;;;;;8.60;4.72;;;;;;;-142.75;65.35;76239.59;4972007;28;20176;-63
2022/04/19 09:49:44;;;;;;;8.13;4.55;;;;;;;-142.75;59.08;76249.44;4971613;28;20478;-64
2022/04/19 09:52:34;;;;;;;7.05;3.47;;;;;;;-142.75;57.99;76312.44;4972254;28;20196;-63
2022/04/19 09:55:03;;;;;;;7.95;4.18;;;;;;;-142.75;60.00;76306.53;4944648;28;20103;-63
2022/04/19 09:57:31;;;;;;;10.48;3.92;;;;;;;-142.75;59.52;76255.34;4972629;28;20040;-63
2022/04/19 09:59:59;;;;;;;6.85;3.55;;;;;;;-142.75;58.64;76227.78;4971224;28;20068;-62
2022/04/19 10:08:20;;;;;;;6.95;3.70;;;;;;;-142.75;55.27;76223.84;4939732;28;20348;-62
2022/04/19 10:10:50;;;;;;;8.85;4.55;;;;;;;-142.75;54.74;76245.50;4971768;28;20033;-63
2022/04/19 10:13:20;;;;;;;10.35;4.70;;;;;;;-142.75;56.03;76267.16;4971832;28;20033;-64
2022/04/19 10:15:46;;;;;;;9.30;4.65;;;;;;;-142.75;56.04;76239.59;4971722;28;20124;-63
2022/04/19 10:18:12;;;;;;;7.10;4.30;;;;;;;-142.75;54.02;76251.41;4971064;28;20025;-63
2022/04/19 10:20:58;;;;;;;9.18;4.57;;;;;;;-142.75;54.26;76239.59;4971915;28;20017;-63
2022/04/19 10:23:34;;;;;;;10.33;4.70;;;;;;;-142.75;54.73;76223.84;4971856;28;20327;-63
2022/04/19 10:26:14;;;;;;;9.27;4.07;;;;;;;-142.75;51.08;76188.44;4971172;28;20817;-63
2022/04/19 10:28:40;;;;;;;9.68;4.90;;;;;;;-142.75;55.87;76178.59;4970891;28;20044;-63
2022/04/19 10:31:06;;;;;;;8.85;4.22;;;;;;;-142.75;54.05;76097.88;4971042;28;20255;-63
2022/04/19 10:33:44;;;;;;;8.98;4.22;;;;;;;-142.75;49.73;76030.97;4971414;28;20040;-62
2022/04/19 10:36:10;;;;;;;6.10;3.47;;;;;;;-142.75;45.84;76017.19;4971124;28;20120;-63
2022/04/19 10:38:36;;;;;;;9.45;4.00;;;;;;;-142.75;46.35;76017.19;4970771;28;20098;-64
2022/04/19 10:41:03;;;;;;;7.97;4.00;;;;;;;-142.75;45.18;76058.53;4971287;28;20391;-63
2022/04/19 10:43:29;;;;;;;12.38;4.13;;;;;;;-142.75;46.23;76088.03;4971202;28;20136;-64
2022/04/19 10:45:55;;;;;;;6.07;3.40;;;;;;;-142.75;51.12;76088.03;4977759;28;20324;-64
2022/04/19 10:48:22;;;;;;;7.93;3.95;;;;;;;-142.75;46.17;76042.78;4990163;28;20290;-64
2022/04/19 10:50:51;;;;;;;7.78;4.07;;;;;;;-142.75;43.86;76054.59;4990708;28;20535;-64
2022/04/19 10:53:16;;;;;;;10.63;4.25;;;;;;;-142.75;43.42;76062.47;4990746;28;20207;-63
2022/04/19 10:56:02;;;;;;;8.57;4.20;;;;;;;-142.75;44.39;76044.75;4990868;28;20290;-63
2022/04/19 10:58:41;;;;;;;9.93;4.63;;;;;;;-142.75;44.35;76042.78;4990196;28;20025;-64
2022/04/19 11:01:27;;;;;;;8.68;4.07;;;;;;;-142.75;49.04;76042.78;4970643;28;20558;-64
2022/04/19 11:03:52;;;;;;;12.13;5.10;;;;;;;-142.75;51.04;76072.31;4990884;28;20033;-63
2022/04/19 11:06:33;;;;;;;8.82;4.50;;;;;;;-142.75;46.21;76019.16;4990551;28;20429;-64
2022/04/19 11:09:15;;;;;;;11.07;4.95;;;;;;;-142.75;47.47;76029.00;4988067;28;20453;-63
2022/04/19 11:11:48;;;;;;;9.73;5.18;;;;;;;-142.75;46.31;76042.78;4970631;28;20197;-64
2022/04/19 11:14:30;;;;;;;11.40;5.25;;;;;;;-142.75;46.81;75999.47;4970514;28;20025;-63
2022/04/19 11:17:18;;;;;;;9.63;5.10;;;;;;;-142.75;50.43;75971.91;4970643;28;20021;-64
2022/04/19 11:19:52;;;;;;;9.52;5.20;;;;;;;-142.75;47.28;75960.13;4969920;28;20022;-63
2022/04/19 11:22:29;;;;;;;10.73;4.78;;;;;;;-142.75;46.57;75912.88;4959466;28;20021;-64
2022/04/19 11:25:06;;;;;;;9.85;5.47;;;;;;;-142.75;45.75;75960.13;4990183;28;20597;-64
2022/04/19 11:27:53;;;;;;;10.57;5.60;;;;;;;-142.75;42.86;75932.56;4990494;28;20021;-65
2022/04/19 11:30:19;;;;;;;9.65;5.47;;;;;;;-142.75;46.60;75979.78;4989958;28;20033;-64
2022/04/19 11:32:56;;;;;;;9.45;5.03;;;;;;;-142.75;49.13;75873.50;4991927;22;20053;-65
2022/04/19 11:35:22;;;;;;;8.55;4.40;;;;;;;-142.75;42.61;75830.22;4950408;28;20208;-65
2022/04/19 11:37:49;;;;;;;9.30;4.60;;;;;;;-142.75;42.35;75847.94;4950034;28;20626;-66
2022/04/19 11:48:38;;;;;;;10.90;4.53;;;;;;;-142.75;42.88;75920.75;4950308;28;20409;-64
2022/04/19 11:51:12;;;;;;;8.43;4.68;;;;;;;-142.75;43.99;75865.63;4949946;28;20076;-64
2022/04/19 11:53:37;;;;;;;10.65;5.07;;;;;;;-142.75;44.04;75849.91;4950651;28;20230;-65
2022/04/19 11:56:04;;;;;;;10.18;4.78;;;;;;;-142.75;40.41;75838.09;4950324;28;20576;-63
2022/04/19 11:58:30;;;;;;;9.00;4.65;;;;;;;-142.75;40.62;75824.31;4949814;28;20141;-64